createdAt,value
2023-03-18T00:02:18.615Z,64.23
2023-03-18T00:04:51.248Z,64.17
2023-03-18T00:07:23.793Z,64.05
2023-03-18T00:09:56.330Z,63.84
2023-03-18T00:12:28.920Z,64.42
2023-03-18T00:15:02.461Z,63.87
2023-03-18T00:17:35.533Z,64.55
2023-03-18T00:20:12.762Z,64.34
2023-03-18T00:22:45.549Z,64.45
2023-03-18T00:25:18.116Z,64.76
2023-03-18T00:27:50.600Z,64.97
2023-03-18T00:30:23.840Z,65.09
2023-03-18T00:32:57.980Z,65.13
2023-03-18T00:35:30.873Z,64.99
2023-03-18T00:38:07.582Z,65.53
2023-03-18T00:40:43.289Z,65.42
2023-03-18T00:43:15.895Z,65.18
2023-03-18T00:45:50.741Z,65.28
2023-03-18T00:48:25.343Z,65.54
2023-03-18T00:50:57.863Z,65.72
2023-03-18T00:53:30.549Z,66.37
2023-03-18T00:56:03.158Z,66.40
2023-03-18T00:58:37.193Z,66.99
2023-03-18T01:01:12.479Z,66.20
2023-03-18T01:03:46.347Z,66.96
2023-03-18T01:06:28.620Z,67.89
2023-03-18T01:09:02.593Z,67.89
2023-03-18T01:11:35.220Z,68.41
2023-03-18T01:14:07.871Z,68.05
2023-03-18T01:16:40.416Z,68.85
2023-03-18T01:19:14.442Z,70.19
2023-03-18T01:21:47.033Z,70.50
2023-03-18T01:24:19.561Z,70.59
2023-03-18T01:26:52.202Z,72.23
2023-03-18T01:29:25.224Z,73.24
2023-03-18T01:31:57.763Z,73.19
2023-03-18T01:34:30.792Z,75.68
2023-03-18T01:37:03.458Z,76.36
2023-03-18T01:39:37.028Z,77.52
2023-03-18T01:42:09.741Z,78.06
2023-03-18T01:44:42.566Z,79.00
2023-03-18T01:47:17.384Z,78.47
2023-03-18T01:49:52.261Z,79.66
2023-03-18T01:52:32.014Z,80.15
2023-03-18T01:55:12.653Z,80.77
2023-03-18T01:57:46.731Z,80.80
2023-03-18T02:00:21.511Z,81.90
2023-03-18T02:02:54.605Z,81.61
2023-03-18T02:05:29.635Z,82.63
2023-03-18T02:08:02.208Z,81.80
2023-03-18T02:10:35.352Z,83.31
2023-03-18T02:13:10.553Z,82.98
2023-03-18T02:15:57.665Z,82.90
2023-03-18T02:18:54.944Z,82.39
2023-03-18T02:21:58.779Z,82.93
2023-03-18T02:25:02.455Z,83.81
2023-03-18T02:27:40.640Z,83.60
2023-03-18T02:30:23.270Z,84.60
2023-03-18T02:32:59.355Z,84.53
2023-03-18T02:35:34.166Z,84.64
2023-03-18T02:38:06.776Z,84.82
2023-03-18T02:40:41.679Z,85.19
2023-03-18T02:43:24.692Z,86.00
2023-03-18T02:46:12.932Z,85.21
2023-03-18T02:48:48.909Z,85.93
2023-03-18T02:51:21.461Z,85.57
2023-03-18T02:54:13.984Z,85.79
2023-03-18T02:56:47.265Z,85.84
2023-03-18T02:59:21.514Z,85.53
2023-03-18T03:01:55.053Z,86.10
2023-03-18T03:04:28.696Z,86.19
2023-03-18T03:07:02.177Z,86.22
2023-03-18T03:09:34.679Z,85.90
2023-03-18T03:12:07.800Z,85.71
2023-03-18T03:14:40.709Z,86.38
2023-03-18T03:17:13.307Z,86.46
2023-03-18T03:19:45.892Z,86.42
2023-03-18T03:22:18.494Z,86.56
2023-03-18T03:24:51.095Z,86.69
2023-03-18T03:27:23.675Z,86.35
2023-03-18T03:29:56.238Z,86.23
2023-03-18T03:32:29.386Z,86.44
2023-03-18T03:35:02.177Z,86.01
2023-03-18T03:37:35.201Z,85.95
2023-03-18T03:40:10.396Z,86.11
2023-03-18T03:42:45.018Z,85.39
2023-03-18T03:45:20.153Z,85.50
2023-03-18T03:47:53.714Z,85.59
2023-03-18T03:50:26.935Z,86.14
2023-03-18T03:52:59.583Z,86.44
2023-03-18T03:55:32.408Z,86.54
2023-03-18T03:58:05.049Z,86.46
2023-03-18T04:00:37.757Z,86.45
2023-03-18T04:03:10.583Z,87.09
2023-03-18T04:05:43.253Z,86.86
2023-03-18T04:08:15.832Z,86.96
2023-03-18T04:10:48.991Z,86.16
2023-03-18T04:13:21.537Z,86.54
2023-03-18T04:15:54.860Z,86.68
2023-03-18T04:18:27.416Z,86.79
2023-03-18T04:21:00.593Z,86.29
2023-03-18T04:23:33.543Z,86.29
2023-03-18T04:26:06.605Z,86.41
2023-03-18T04:28:39.448Z,86.38
2023-03-18T04:31:12.090Z,86.62
2023-03-18T04:33:44.790Z,86.16
2023-03-18T04:36:17.375Z,86.94
2023-03-18T04:38:50.365Z,87.04
2023-03-18T04:41:23.704Z,86.83
2023-03-18T04:43:57.598Z,87.32
2023-03-18T04:46:31.905Z,86.64
2023-03-18T04:49:04.577Z,87.60
2023-03-18T04:51:37.677Z,86.88
2023-03-18T04:54:12.392Z,87.40
2023-03-18T04:56:45.098Z,87.08
2023-03-18T04:59:18.265Z,86.82
2023-03-18T05:01:50.731Z,87.22
2023-03-18T05:04:23.851Z,88.07
2023-03-18T05:06:56.991Z,87.84
2023-03-18T05:09:29.535Z,87.10
2023-03-18T05:12:02.115Z,87.16
2023-03-18T05:14:34.617Z,86.96
2023-03-18T05:17:07.349Z,87.11
2023-03-18T05:19:39.855Z,86.90
2023-03-18T05:22:15.336Z,86.57
2023-03-18T05:24:48.628Z,87.22
2023-03-18T05:27:21.418Z,87.09
2023-03-18T05:29:54.363Z,86.65
2023-03-18T05:32:26.888Z,86.67
2023-03-18T05:34:59.447Z,86.34
2023-03-18T05:37:32.036Z,86.95
2023-03-18T05:40:09.917Z,87.20
2023-03-18T05:42:55.333Z,87.43
2023-03-18T05:45:28.592Z,87.30
2023-03-18T05:48:01.091Z,87.28
2023-03-18T05:50:38.642Z,87.51
2023-03-18T05:53:11.944Z,87.85
2023-03-18T05:55:44.485Z,88.01
2023-03-18T05:58:18.056Z,88.20
2023-03-18T06:00:50.575Z,87.35
2023-03-18T06:03:25.253Z,87.25
2023-03-18T06:05:58.751Z,87.13
2023-03-18T06:08:31.758Z,87.77
2023-03-18T06:11:04.837Z,87.05
2023-03-18T06:13:37.576Z,87.72
2023-03-18T06:16:11.420Z,87.53
2023-03-18T06:18:44.858Z,86.72
2023-03-18T06:21:17.787Z,87.00
2023-03-18T06:23:51.513Z,86.72
2023-03-18T06:26:24.259Z,87.00
2023-03-18T06:28:58.356Z,87.54
2023-03-18T06:31:31.408Z,87.47
2023-03-18T06:34:05.016Z,87.85
2023-03-18T06:36:37.580Z,87.60
2023-03-18T06:39:10.766Z,88.09
2023-03-18T06:41:43.265Z,88.40
2023-03-18T06:44:15.752Z,88.14
2023-03-18T06:46:48.358Z,88.59
2023-03-18T06:49:21.776Z,88.19
2023-03-18T06:51:54.639Z,87.79
2023-03-18T06:54:28.945Z,88.38
2023-03-18T06:57:01.649Z,87.92
2023-03-18T06:59:34.688Z,87.91
2023-03-18T07:02:08.633Z,87.41
2023-03-18T07:04:41.531Z,87.49
2023-03-18T07:07:14.552Z,87.46
2023-03-18T07:09:47.109Z,87.60
2023-03-18T07:12:19.662Z,87.81
2023-03-18T07:14:53.617Z,87.52
2023-03-18T07:17:26.128Z,87.60
2023-03-18T07:19:58.750Z,87.19
2023-03-18T07:22:31.671Z,87.64
2023-03-18T07:25:05.180Z,87.35
2023-03-18T07:27:37.790Z,86.76
2023-03-18T07:30:11.371Z,86.60
2023-03-18T07:32:45.958Z,86.20
2023-03-18T07:35:19.188Z,86.25
2023-03-18T07:37:52.265Z,85.51
2023-03-18T07:40:24.810Z,84.95
2023-03-18T07:42:57.291Z,85.52
2023-03-18T07:45:30.071Z,85.62
2023-03-18T07:48:03.179Z,84.98
2023-03-18T07:50:36.451Z,84.52
2023-03-18T07:53:09.274Z,84.96
2023-03-18T07:55:42.070Z,84.77
2023-03-18T07:58:15.430Z,84.16
2023-03-18T08:00:49.331Z,83.65
2023-03-18T08:03:22.550Z,83.14
2023-03-18T08:05:56.054Z,82.22
2023-03-18T08:08:28.704Z,81.64
2023-03-18T08:11:02.424Z,81.28
2023-03-18T08:13:37.279Z,80.66
2023-03-18T08:16:09.864Z,80.88
2023-03-18T08:18:42.382Z,80.31
2023-03-18T08:21:15.359Z,79.87
2023-03-18T08:23:47.910Z,79.52
2023-03-18T08:26:20.513Z,78.79
2023-03-18T08:28:53.190Z,78.41
2023-03-18T08:31:25.865Z,78.77
2023-03-18T08:34:00.509Z,78.45
2023-03-18T08:36:33.407Z,77.36
2023-03-18T08:39:05.991Z,77.59
2023-03-18T08:41:38.680Z,76.96
2023-03-18T08:44:11.331Z,77.11
2023-03-18T08:46:43.948Z,76.29
2023-03-18T08:49:17.597Z,75.20
2023-03-18T08:51:51.668Z,75.97
2023-03-18T08:54:24.214Z,75.29
2023-03-18T08:56:57.159Z,75.01
2023-03-18T08:59:29.780Z,74.76
2023-03-18T09:02:03.534Z,73.96
2023-03-18T09:04:36.007Z,73.99
2023-03-18T09:07:09.799Z,74.03
2023-03-18T09:09:44.368Z,73.04
2023-03-18T09:12:17.969Z,72.80
2023-03-18T09:14:50.482Z,73.30
2023-03-18T09:17:31.993Z,72.88
2023-03-18T09:20:15.207Z,71.77
2023-03-18T09:22:47.856Z,72.24
2023-03-18T09:25:20.552Z,71.33
2023-03-18T09:27:53.633Z,70.83
2023-03-18T09:30:26.524Z,71.41
2023-03-18T09:32:59.611Z,69.49
2023-03-18T09:35:34.301Z,69.24
2023-03-18T09:38:07.259Z,68.79
2023-03-18T09:40:56.030Z,68.46
2023-03-18T09:43:49.684Z,66.87
2023-03-18T09:46:42.745Z,66.73
2023-03-18T09:49:36.875Z,67.07
2023-03-18T09:52:31.918Z,66.33
2023-03-18T09:55:19.588Z,65.11
2023-03-18T09:58:03.025Z,65.30
2023-03-18T10:00:39.792Z,64.39
2023-03-18T10:03:34.548Z,63.00
2023-03-18T10:06:20.839Z,63.02
2023-03-18T10:09:27.022Z,63.22
2023-03-18T10:12:16.842Z,60.67
2023-03-18T10:15:21.453Z,61.10
2023-03-18T10:18:11.788Z,61.48
2023-03-18T10:21:19.944Z,61.38
2023-03-18T10:23:58.338Z,59.69
2023-03-18T10:27:01.436Z,59.28
2023-03-18T10:29:49.342Z,59.41
2023-03-18T10:32:50.590Z,59.64
2023-03-18T10:36:14.899Z,60.24
2023-03-18T10:38:51.668Z,60.40
2023-03-18T10:41:38.390Z,58.59
2023-03-18T10:44:36.759Z,57.04
2023-03-18T10:47:23.436Z,56.38
2023-03-18T10:50:42.547Z,56.27
2023-03-18T10:53:27.627Z,56.34
2023-03-18T10:56:12.958Z,55.57
2023-03-18T10:58:46.429Z,54.86
2023-03-18T11:01:23.385Z,55.97
2023-03-18T11:04:06.180Z,55.50
2023-03-18T11:06:59.599Z,54.30
2023-03-18T11:09:42.177Z,56.27
2023-03-18T11:12:30.425Z,55.12
2023-03-18T11:15:11.115Z,55.16
2023-03-18T11:17:49.929Z,55.16
2023-03-18T11:20:44.202Z,55.54
2023-03-18T11:23:48.689Z,54.10
2023-03-18T11:26:22.828Z,55.04
2023-03-18T11:28:59.824Z,55.07
2023-03-18T11:31:32.735Z,55.65
2023-03-18T11:34:08.960Z,56.36
2023-03-18T11:36:41.490Z,56.87
2023-03-18T11:39:16.603Z,56.80
2023-03-18T11:41:49.389Z,58.20
2023-03-18T11:44:32.021Z,59.80
2023-03-18T11:47:20.887Z,58.95
2023-03-18T11:49:53.727Z,61.20
2023-03-18T11:52:54.339Z,61.12
2023-03-18T11:55:44.882Z,60.83
2023-03-18T11:58:38.652Z,61.86
2023-03-18T12:01:32.735Z,61.21
2023-03-18T12:04:27.330Z,60.67
2023-03-18T12:07:11.095Z,59.83
2023-03-18T12:10:24.105Z,59.92
2023-03-18T12:13:26.116Z,60.17
2023-03-18T12:16:21.943Z,60.78
2023-03-18T12:19:06.859Z,61.84
2023-03-18T12:22:02.420Z,61.73
2023-03-18T12:24:52.769Z,61.55
2023-03-18T12:27:48.501Z,62.46
2023-03-18T12:30:36.796Z,61.53
2023-03-18T12:33:59.360Z,61.60
2023-03-18T12:37:02.314Z,61.34
2023-03-18T12:39:56.624Z,60.67
2023-03-18T12:42:51.447Z,60.05
2023-03-18T12:45:34.262Z,59.89
2023-03-18T12:48:16.253Z,60.49
2023-03-18T12:51:04.890Z,60.54
2023-03-18T12:53:50.297Z,60.17
2023-03-18T12:56:28.155Z,60.91
2023-03-18T12:59:22.295Z,59.50
2023-03-18T13:02:41.651Z,58.12
2023-03-18T13:05:27.588Z,58.42
2023-03-18T13:08:38.819Z,59.51
2023-03-18T13:11:42.013Z,62.44
2023-03-18T13:14:29.952Z,63.25
2023-03-18T13:17:06.563Z,63.01
2023-03-18T13:19:42.009Z,61.91
2023-03-18T13:22:44.095Z,61.40
2023-03-18T13:25:36.078Z,61.95
2023-03-18T13:28:30.519Z,62.09
2023-03-18T13:31:34.455Z,60.11
2023-03-18T13:34:40.550Z,62.42
2023-03-18T13:37:51.993Z,61.54
2023-03-18T13:41:04.516Z,62.49
2023-03-18T13:43:48.985Z,62.97
2023-03-18T13:46:28.843Z,61.86
2023-03-18T13:49:03.940Z,62.65
2023-03-18T13:51:36.433Z,62.34
2023-03-18T13:54:20.654Z,61.80
2023-03-18T13:56:55.885Z,61.21
2023-03-18T13:59:34.330Z,60.23
2023-03-18T14:02:39.803Z,60.17
2023-03-18T14:05:41.065Z,58.69
2023-03-18T14:08:38.730Z,56.16
2023-03-18T14:11:17.382Z,56.88
2023-03-18T14:14:04.049Z,58.84
2023-03-18T14:16:45.515Z,56.35
2023-03-18T14:19:32.643Z,57.17
2023-03-18T14:22:18.601Z,56.23
2023-03-18T14:25:12.906Z,57.56
2023-03-18T14:28:07.531Z,56.75
2023-03-18T14:30:45.925Z,57.28
2023-03-18T14:33:18.671Z,56.61
2023-03-18T14:36:09.995Z,56.76
2023-03-18T14:39:03.563Z,56.14
2023-03-18T14:41:44.687Z,56.29
2023-03-18T14:44:34.700Z,57.10
2023-03-18T14:47:37.754Z,55.55
2023-03-18T14:50:42.930Z,55.50
2023-03-18T14:53:35.199Z,56.20
2023-03-18T14:56:19.595Z,56.19
2023-03-18T14:58:53.485Z,56.25
2023-03-18T15:01:37.257Z,55.19
2023-03-18T15:04:20.685Z,54.40
2023-03-18T15:06:57.117Z,54.81
2023-03-18T15:09:34.691Z,54.09
2023-03-18T15:12:25.054Z,54.41
2023-03-18T15:14:57.955Z,54.64
2023-03-18T15:17:30.515Z,54.66
2023-03-18T15:20:05.441Z,54.54
2023-03-18T15:22:38.703Z,55.02
2023-03-18T15:25:20.546Z,53.82
2023-03-18T15:27:55.109Z,52.95
2023-03-18T15:30:31.721Z,50.94
2023-03-18T15:33:08.430Z,50.55
2023-03-18T15:35:44.067Z,50.12
2023-03-18T15:38:22.117Z,49.26
2023-03-18T15:41:12.277Z,47.65
2023-03-18T15:43:49.093Z,47.67
2023-03-18T15:46:33.011Z,48.00
2023-03-18T15:49:06.550Z,48.98
2023-03-18T15:51:48.058Z,49.38
2023-03-18T15:54:30.816Z,50.47
2023-03-18T15:57:13.688Z,49.90
2023-03-18T15:59:46.324Z,48.28
2023-03-18T16:02:19.424Z,48.33
2023-03-18T16:04:52.074Z,47.76
2023-03-18T16:07:28.273Z,47.37
2023-03-18T16:10:01.571Z,47.71
2023-03-18T16:12:34.344Z,48.01
2023-03-18T16:15:13.772Z,48.71
2023-03-18T16:17:48.613Z,47.21
2023-03-18T16:20:28.848Z,47.48
2023-03-18T16:23:02.100Z,46.42
2023-03-18T16:25:35.256Z,45.63
2023-03-18T16:28:18.468Z,45.34
2023-03-18T16:30:53.450Z,44.86
2023-03-18T16:33:26.147Z,44.06
2023-03-18T16:36:01.616Z,44.45
2023-03-18T16:38:34.764Z,45.00
2023-03-18T16:41:08.126Z,45.63
2023-03-18T16:43:40.999Z,45.50
2023-03-18T16:46:14.864Z,46.21
2023-03-18T16:48:49.370Z,46.75
2023-03-18T16:51:22.396Z,46.56
2023-03-18T16:53:55.227Z,47.14
2023-03-18T16:56:27.945Z,46.47
2023-03-18T16:59:01.376Z,47.57
2023-03-18T17:01:33.948Z,47.50
2023-03-18T17:04:34.374Z,48.34
2023-03-18T17:07:07.059Z,49.27
2023-03-18T17:09:39.565Z,49.63
2023-03-18T17:12:12.687Z,49.98
2023-03-18T17:14:55.513Z,50.99
2023-03-18T17:17:35.855Z,52.09
2023-03-18T17:20:19.267Z,51.41
2023-03-18T17:22:52.575Z,51.78
2023-03-18T17:25:28.486Z,52.22
2023-03-18T17:28:07.046Z,53.22
2023-03-18T17:30:40.160Z,52.45
2023-03-18T17:33:33.953Z,53.82
2023-03-18T17:36:07.921Z,53.62
2023-03-18T17:38:40.532Z,54.17
2023-03-18T17:41:20.939Z,54.37
2023-03-18T17:43:53.510Z,54.99
2023-03-18T17:46:26.065Z,55.34
2023-03-18T17:48:59.177Z,55.68
2023-03-18T17:51:32.767Z,56.70
2023-03-18T17:54:06.124Z,56.50
2023-03-18T17:56:38.894Z,56.76
2023-03-18T17:59:19.489Z,56.78
2023-03-18T18:01:52.409Z,56.93
2023-03-18T18:04:26.096Z,57.52
2023-03-18T18:06:59.241Z,56.88
2023-03-18T18:09:31.714Z,57.32
2023-03-18T18:12:05.108Z,56.90
2023-03-18T18:14:38.352Z,57.09
2023-03-18T18:17:16.268Z,57.54
2023-03-18T18:19:48.786Z,57.50
2023-03-18T18:22:26.487Z,57.80
2023-03-18T18:25:00.251Z,57.20
2023-03-18T18:27:32.784Z,57.25
2023-03-18T18:30:05.977Z,57.88
2023-03-18T18:32:38.576Z,58.10
2023-03-18T18:35:22.823Z,58.20
2023-03-18T18:37:55.376Z,58.03
2023-03-18T18:40:27.921Z,58.12
2023-03-18T18:43:00.518Z,57.98
2023-03-18T18:45:34.116Z,58.42
2023-03-18T18:48:17.252Z,58.11
2023-03-18T18:50:50.449Z,58.22
2023-03-18T18:53:32.868Z,58.81
2023-03-18T18:56:22.025Z,58.76
2023-03-18T18:58:56.563Z,58.66
2023-03-18T19:01:29.166Z,58.84
2023-03-18T19:04:02.656Z,58.90
2023-03-18T19:06:36.502Z,58.67
2023-03-18T19:09:24.382Z,59.06
2023-03-18T19:11:56.971Z,59.63
2023-03-18T19:14:30.018Z,61.04
2023-03-18T19:17:04.122Z,64.54
2023-03-18T19:19:36.638Z,67.34
2023-03-18T19:22:15.586Z,68.70
2023-03-18T19:24:50.100Z,70.48
2023-03-18T19:27:28.151Z,71.85
2023-03-18T19:30:05.433Z,72.29
2023-03-18T19:32:38.036Z,72.38
2023-03-18T19:35:13.656Z,72.58
2023-03-18T19:37:48.287Z,72.09
2023-03-18T19:40:25.241Z,72.77
2023-03-18T19:42:57.826Z,73.12
2023-03-18T19:45:30.472Z,72.98
2023-03-18T19:48:03.105Z,72.74
2023-03-18T19:50:35.665Z,73.13
2023-03-18T19:53:15.248Z,73.12
2023-03-18T19:55:48.597Z,73.11
2023-03-18T19:58:26.961Z,73.15
2023-03-18T20:01:01.632Z,73.17
2023-03-18T20:03:35.305Z,73.96
2023-03-18T20:06:08.600Z,73.85
2023-03-18T20:08:41.481Z,74.51
2023-03-18T20:11:17.198Z,74.34
2023-03-18T20:13:50.015Z,74.87
2023-03-18T20:16:25.894Z,74.66
2023-03-18T20:18:58.429Z,75.92
2023-03-18T20:21:32.348Z,75.35
2023-03-18T20:24:09.421Z,75.53
2023-03-18T20:26:42.123Z,74.85
2023-03-18T20:29:18.974Z,75.36
2023-03-18T20:31:51.633Z,74.73
2023-03-18T20:34:24.275Z,74.81
2023-03-18T20:36:57.101Z,74.99
2023-03-18T20:39:29.713Z,74.95
2023-03-18T20:42:02.524Z,75.29
2023-03-18T20:44:35.086Z,74.86
2023-03-18T20:47:08.799Z,75.01
2023-03-18T20:49:44.619Z,75.07
2023-03-18T20:52:27.777Z,74.16
2023-03-18T20:55:00.362Z,74.50
2023-03-18T20:57:32.944Z,74.19
2023-03-18T21:00:07.408Z,74.07
2023-03-18T21:02:41.985Z,74.15
2023-03-18T21:05:14.915Z,73.74
2023-03-18T21:07:48.444Z,72.74
2023-03-18T21:10:25.414Z,72.83
2023-03-18T21:12:57.904Z,73.00
2023-03-18T21:15:30.552Z,73.11
2023-03-18T21:18:04.040Z,72.74
2023-03-18T21:20:36.647Z,72.63
2023-03-18T21:23:31.621Z,72.78
2023-03-18T21:26:04.352Z,72.45
2023-03-18T21:28:36.938Z,72.02
2023-03-18T21:31:42.018Z,71.71
2023-03-18T21:34:14.568Z,71.39
2023-03-18T21:36:47.124Z,72.12
2023-03-18T21:39:21.042Z,71.87
2023-03-18T21:41:53.793Z,71.77
2023-03-18T21:44:26.381Z,71.79
2023-03-18T21:46:58.844Z,71.41
2023-03-18T21:49:31.405Z,71.43
2023-03-18T21:52:04.520Z,71.23
2023-03-18T21:54:37.080Z,71.42
2023-03-18T21:57:21.907Z,71.51
2023-03-18T21:59:54.524Z,72.02
2023-03-18T22:02:37.728Z,73.58
2023-03-18T22:05:17.126Z,74.64
2023-03-18T22:07:51.717Z,75.58
2023-03-18T22:10:24.314Z,76.78
2023-03-18T22:12:57.474Z,76.57
2023-03-18T22:15:39.123Z,76.14
2023-03-18T22:18:11.925Z,75.93
2023-03-18T22:20:48.382Z,76.17
2023-03-18T22:23:29.785Z,76.05
2023-03-18T22:26:02.456Z,76.24
2023-03-18T22:28:35.019Z,77.00
2023-03-18T22:31:19.164Z,76.98
2023-03-18T22:33:52.383Z,77.66
2023-03-18T22:36:27.392Z,77.29
2023-03-18T22:38:59.930Z,77.98
2023-03-18T22:41:32.496Z,78.65
2023-03-18T22:44:05.598Z,78.39
2023-03-18T22:46:38.135Z,78.58
2023-03-18T22:49:10.776Z,78.63
2023-03-18T22:51:44.781Z,79.90
2023-03-18T22:54:19.074Z,80.16
2023-03-18T22:56:51.622Z,80.95
2023-03-18T22:59:24.143Z,80.63
2023-03-18T23:01:56.773Z,80.84
2023-03-18T23:04:30.165Z,80.90
2023-03-18T23:07:02.854Z,82.11
2023-03-18T23:09:41.605Z,81.13
2023-03-18T23:12:20.760Z,80.96
2023-03-18T23:14:54.344Z,80.99
2023-03-18T23:17:28.582Z,81.28
2023-03-18T23:20:01.240Z,81.47
2023-03-18T23:22:34.828Z,81.09
2023-03-18T23:25:12.391Z,80.41
2023-03-18T23:27:45.456Z,81.11
2023-03-18T23:30:18.251Z,80.96
2023-03-18T23:32:51.825Z,80.83
2023-03-18T23:35:24.418Z,81.68
2023-03-18T23:37:57.204Z,80.60
2023-03-18T23:40:29.832Z,81.19
2023-03-18T23:43:02.861Z,81.13
2023-03-18T23:45:38.115Z,82.01
2023-03-18T23:48:11.119Z,81.84
2023-03-18T23:50:43.578Z,81.21
2023-03-18T23:53:16.260Z,81.33
2023-03-18T23:55:49.534Z,80.98
2023-03-18T23:58:22.260Z,81.90
